createdAt,value
2018-07-24T00:02:22.481Z,21.60
2018-07-24T00:04:50.108Z,21.77
2018-07-24T00:07:17.684Z,20.67
2018-07-24T00:09:45.331Z,21.70
2018-07-24T00:12:13.168Z,21.67
2018-07-24T00:14:40.820Z,22.13
2018-07-24T00:17:08.416Z,21.90
2018-07-24T00:19:37.049Z,23.50
2018-07-24T00:22:04.660Z,21.90
2018-07-24T00:24:32.408Z,21.80
2018-07-24T00:27:00.125Z,22.77
2018-07-24T00:29:27.707Z,23.00
2018-07-24T00:31:55.345Z,23.30
2018-07-24T00:34:23.040Z,23.00
2018-07-24T00:36:50.613Z,24.70
2018-07-24T00:39:18.208Z,25.00
2018-07-24T00:41:46.468Z,23.97
2018-07-24T00:44:14.031Z,23.07
2018-07-24T00:46:41.624Z,22.80
2018-07-24T00:49:09.197Z,23.27
2018-07-24T00:51:36.820Z,23.93
2018-07-24T00:54:04.839Z,23.90
2018-07-24T00:56:32.443Z,25.73
2018-07-24T00:59:00.067Z,25.03
2018-07-24T01:01:27.684Z,25.63
2018-07-24T01:03:55.361Z,24.47
2018-07-24T01:06:22.992Z,26.37
2018-07-24T01:08:50.597Z,26.53
2018-07-24T01:11:18.209Z,24.07
2018-07-24T01:13:52.749Z,24.67
2018-07-24T01:16:20.377Z,24.87
2018-07-24T01:18:47.994Z,23.90
2018-07-24T01:21:15.917Z,24.97
2018-07-24T01:23:43.533Z,23.90
2018-07-24T01:26:11.127Z,25.20
2018-07-24T01:28:38.727Z,25.20
2018-07-24T01:31:06.353Z,24.50
2018-07-24T01:33:34.997Z,23.73
2018-07-24T01:36:02.640Z,23.27
2018-07-24T01:38:30.265Z,25.50
2018-07-24T01:40:57.899Z,24.77
2018-07-24T01:43:25.528Z,27.73
2018-07-24T01:45:53.148Z,24.60
2018-07-24T01:48:20.777Z,25.40
2018-07-24T01:50:48.684Z,25.00
2018-07-24T01:53:16.360Z,26.20
2018-07-24T01:55:43.989Z,25.73
2018-07-24T01:58:11.589Z,24.30
2018-07-24T02:00:39.958Z,23.77
2018-07-24T02:03:07.570Z,23.47
2018-07-24T02:05:35.196Z,24.27
2018-07-24T02:08:02.719Z,24.23
2018-07-24T02:10:30.325Z,22.70
2018-07-24T02:12:57.956Z,23.03
2018-07-24T02:15:26.614Z,23.83
2018-07-24T02:17:54.228Z,23.03
2018-07-24T02:20:21.882Z,23.67
2018-07-24T02:22:49.528Z,22.40
2018-07-24T02:25:17.177Z,23.20
2018-07-24T02:27:44.789Z,23.53
2018-07-24T02:30:12.455Z,24.57
2018-07-24T02:32:40.072Z,23.00
2018-07-24T02:35:07.741Z,22.73
2018-07-24T02:37:35.355Z,22.97
2018-07-24T02:40:03.145Z,23.50
2018-07-24T02:42:31.834Z,21.73
2018-07-24T02:44:59.463Z,20.47
2018-07-24T02:47:27.091Z,21.97
2018-07-24T02:49:54.725Z,22.27
2018-07-24T02:52:22.365Z,22.40
2018-07-24T02:54:50.101Z,22.30
2018-07-24T02:57:19.317Z,21.07
2018-07-24T02:59:46.941Z,22.27
2018-07-24T03:02:14.564Z,23.47
2018-07-24T03:04:42.199Z,22.70
2018-07-24T03:07:11.777Z,22.60
2018-07-24T03:09:39.389Z,22.40
2018-07-24T03:12:07.058Z,23.37
2018-07-24T03:14:34.664Z,22.47
2018-07-24T03:17:03.341Z,22.60
2018-07-24T03:19:30.958Z,21.77
2018-07-24T03:21:58.601Z,22.83
2018-07-24T03:24:26.227Z,21.20
2018-07-24T03:26:53.853Z,19.97
2018-07-24T03:29:21.430Z,20.07
2018-07-24T03:31:49.113Z,21.33
2018-07-24T03:34:16.729Z,22.30
2018-07-24T03:36:44.354Z,19.73
2018-07-24T03:39:12.925Z,21.40
2018-07-24T03:41:40.736Z,20.77
2018-07-24T03:44:08.617Z,21.00
2018-07-24T03:46:36.225Z,23.63
2018-07-24T03:49:03.928Z,20.77
2018-07-24T03:51:32.585Z,21.37
2018-07-24T03:54:00.196Z,21.10
2018-07-24T03:56:27.897Z,20.30
2018-07-24T03:58:55.522Z,21.97
2018-07-24T04:01:23.149Z,20.73
2018-07-24T04:03:50.761Z,22.27
2018-07-24T04:06:18.409Z,21.70
2018-07-24T04:08:46.046Z,20.97
2018-07-24T04:11:13.683Z,20.80
2018-07-24T04:13:41.285Z,19.43
2018-07-24T04:16:08.969Z,19.53
2018-07-24T04:18:46.101Z,19.50
2018-07-24T04:21:14.291Z,21.27
2018-07-24T04:23:42.157Z,18.20
2018-07-24T04:26:09.806Z,18.60
2018-07-24T04:28:37.445Z,19.53
2018-07-24T04:31:05.175Z,17.07
2018-07-24T04:33:32.727Z,19.37
2018-07-24T04:36:00.673Z,18.57
2018-07-24T04:38:28.273Z,19.50
2018-07-24T04:40:55.890Z,17.70
2018-07-24T04:43:23.506Z,18.20
2018-07-24T04:45:51.169Z,18.10
2018-07-24T04:48:18.797Z,17.63
2018-07-24T04:50:46.445Z,17.77
2018-07-24T04:53:14.085Z,19.00
2018-07-24T04:55:41.746Z,19.20
2018-07-24T04:58:09.358Z,17.73
2018-07-24T05:00:36.962Z,16.93
2018-07-24T05:03:05.061Z,17.67
2018-07-24T05:05:33.234Z,17.50
2018-07-24T05:08:00.901Z,15.93
2018-07-24T05:10:28.887Z,16.47
2018-07-24T05:12:56.833Z,17.60
2018-07-24T05:15:24.530Z,19.00
2018-07-24T05:17:52.173Z,15.80
2018-07-24T05:20:19.738Z,16.90
2018-07-24T05:22:47.296Z,14.80
2018-07-24T05:25:14.937Z,16.57
2018-07-24T05:27:42.553Z,17.10
2018-07-24T05:30:10.180Z,16.77
2018-07-24T05:32:37.794Z,16.83
2018-07-24T05:35:05.773Z,16.90
2018-07-24T05:37:33.384Z,18.53
2018-07-24T05:40:01.002Z,16.93
2018-07-24T05:42:28.625Z,15.13
2018-07-24T05:44:56.240Z,15.30
2018-07-24T05:47:23.847Z,15.93
2018-07-24T05:49:51.479Z,15.50
2018-07-24T05:52:19.113Z,15.97
2018-07-24T05:54:46.721Z,14.57
2018-07-24T05:57:14.453Z,13.73
2018-07-24T05:59:42.065Z,13.93
2018-07-24T06:02:10.069Z,14.60
2018-07-24T06:04:37.680Z,13.70
2018-07-24T06:07:05.309Z,13.20
2018-07-24T06:09:33.057Z,12.17
2018-07-24T06:12:00.741Z,12.00
2018-07-24T06:14:28.396Z,13.13
2018-07-24T06:16:56.031Z,12.27
2018-07-24T06:19:25.224Z,12.37
2018-07-24T06:21:52.934Z,12.80
2018-07-24T06:24:20.481Z,13.53
2018-07-24T06:26:48.408Z,13.20
2018-07-24T06:29:17.048Z,13.13
2018-07-24T06:31:45.203Z,12.30
2018-07-24T06:34:13.187Z,12.57
2018-07-24T06:36:40.797Z,13.07
2018-07-24T06:39:10.323Z,12.87
2018-07-24T06:41:38.502Z,13.10
2018-07-24T06:44:06.125Z,13.03
2018-07-24T06:46:33.769Z,13.23
2018-07-24T06:49:01.699Z,13.07
2018-07-24T06:51:29.391Z,13.30
2018-07-24T06:53:56.985Z,13.30
2018-07-24T06:56:24.622Z,14.37
2018-07-24T06:58:52.172Z,13.00
2018-07-24T07:01:20.026Z,12.07
2018-07-24T07:03:47.621Z,11.90
2018-07-24T07:06:16.302Z,12.40
2018-07-24T07:08:43.957Z,12.50
2018-07-24T07:11:11.988Z,12.37
2018-07-24T07:13:40.629Z,13.00
2018-07-24T07:16:08.257Z,12.30
2018-07-24T07:18:35.902Z,13.17
2018-07-24T07:21:03.517Z,12.00
2018-07-24T07:23:31.194Z,14.27
2018-07-24T07:25:59.301Z,12.67
2018-07-24T07:28:27.257Z,12.97
2018-07-24T07:30:54.904Z,15.30
2018-07-24T07:33:22.513Z,11.83
2018-07-24T07:35:50.129Z,12.50
2018-07-24T07:38:17.779Z,12.73
2018-07-24T07:40:45.437Z,13.10
2018-07-24T07:43:13.030Z,13.20
2018-07-24T07:45:40.638Z,12.77
2018-07-24T07:48:08.457Z,12.57
2018-07-24T07:50:36.055Z,13.03
2018-07-24T07:53:03.698Z,11.83
2018-07-24T07:55:31.302Z,12.23
2018-07-24T07:57:58.908Z,12.13
2018-07-24T08:00:26.537Z,11.67
2018-07-24T08:02:54.154Z,11.70
2018-07-24T08:05:21.802Z,11.43
2018-07-24T08:07:49.420Z,11.17
2018-07-24T08:10:18.009Z,11.70
2018-07-24T08:12:45.658Z,11.63
2018-07-24T08:15:13.858Z,11.80
2018-07-24T08:17:41.477Z,11.40
2018-07-24T08:20:09.121Z,11.40
2018-07-24T08:22:36.737Z,10.73
2018-07-24T08:25:04.379Z,10.73
2018-07-24T08:27:32.016Z,10.23
2018-07-24T08:29:59.613Z,10.40
2018-07-24T08:32:27.249Z,9.90
2018-07-24T08:34:54.849Z,9.67
2018-07-24T08:37:22.485Z,9.60
2018-07-24T08:39:50.094Z,8.20
2018-07-24T08:42:17.693Z,9.20
2018-07-24T08:44:46.333Z,9.90
2018-07-24T08:47:13.965Z,10.07
2018-07-24T08:49:41.573Z,9.30
2018-07-24T08:52:09.185Z,8.07
2018-07-24T08:54:36.975Z,8.70
2018-07-24T08:57:04.471Z,8.80
2018-07-24T08:59:32.185Z,9.43
2018-07-24T09:02:00.462Z,8.60
2018-07-24T09:04:28.233Z,9.17
2018-07-24T09:06:56.097Z,9.10
2018-07-24T09:09:23.717Z,9.53
2018-07-24T09:11:51.325Z,8.67
2018-07-24T09:14:19.031Z,8.50
2018-07-24T09:16:46.668Z,8.30
2018-07-24T09:19:14.320Z,8.50
2018-07-24T09:21:42.166Z,9.50
2018-07-24T09:24:09.792Z,8.23
2018-07-24T09:26:37.402Z,7.70
2018-07-24T09:29:05.081Z,7.87
2018-07-24T09:31:32.676Z,9.00
2018-07-24T09:34:00.330Z,8.60
2018-07-24T09:36:27.988Z,9.00
2018-07-24T09:38:55.584Z,8.80
2018-07-24T09:41:23.225Z,8.33
2018-07-24T09:43:50.808Z,9.33
2018-07-24T09:46:18.624Z,9.13
2018-07-24T09:48:46.282Z,8.40
2018-07-24T09:51:13.894Z,9.40
2018-07-24T09:53:41.505Z,9.47
2018-07-24T09:56:09.162Z,8.50
2018-07-24T09:58:36.780Z,9.20
2018-07-24T10:01:10.060Z,9.27
2018-07-24T10:03:37.773Z,8.80
2018-07-24T10:06:05.427Z,9.20
2018-07-24T10:08:33.077Z,12.50
2018-07-24T10:11:01.707Z,11.10
2018-07-24T10:13:29.355Z,10.47
2018-07-24T10:15:56.948Z,9.10
2018-07-24T10:18:24.580Z,8.20
2018-07-24T10:20:52.198Z,8.90
2018-07-24T10:23:20.553Z,8.90
2018-07-24T10:25:48.169Z,8.50
2018-07-24T10:28:15.782Z,9.27
2018-07-24T10:30:43.380Z,9.30
2018-07-24T10:33:10.993Z,8.60
2018-07-24T10:35:38.585Z,9.37
2018-07-24T10:38:06.192Z,8.53
2018-07-24T10:40:33.725Z,9.20
2018-07-24T10:43:01.401Z,8.60
2018-07-24T10:45:28.969Z,7.83
2018-07-24T10:47:56.593Z,6.60
2018-07-24T10:50:24.200Z,8.30
2018-07-24T10:52:51.788Z,7.13
2018-07-24T10:55:19.417Z,7.37
2018-07-24T10:57:47.647Z,7.97
2018-07-24T11:00:15.264Z,7.00
2018-07-24T11:02:42.907Z,6.90
2018-07-24T11:05:10.522Z,7.33
2018-07-24T11:07:38.150Z,7.53
2018-07-24T11:10:05.801Z,8.57
2018-07-24T11:12:34.389Z,7.47
2018-07-24T11:15:02.094Z,8.60
2018-07-24T11:17:29.830Z,7.80
2018-07-24T11:19:58.049Z,6.90
2018-07-24T11:22:26.779Z,7.47
2018-07-24T11:24:54.316Z,7.00
2018-07-24T11:27:22.545Z,6.90
2018-07-24T11:29:50.105Z,7.27
2018-07-24T11:32:17.995Z,7.90
2018-07-24T11:34:45.641Z,7.03
2018-07-24T11:37:13.257Z,6.30
2018-07-24T11:39:40.887Z,7.00
2018-07-24T11:42:08.505Z,6.93
2018-07-24T11:44:36.097Z,6.13
2018-07-24T11:47:03.762Z,6.00
2018-07-24T11:49:31.367Z,5.73
2018-07-24T11:51:59.028Z,6.80
2018-07-24T11:54:26.634Z,6.20
2018-07-24T11:56:54.248Z,6.00
2018-07-24T11:59:21.849Z,6.57
2018-07-24T12:01:49.436Z,6.37
2018-07-24T12:04:17.037Z,6.60
2018-07-24T12:06:44.666Z,6.80
2018-07-24T12:09:13.021Z,6.10
2018-07-24T12:11:41.307Z,6.03
2018-07-24T12:14:08.930Z,6.30
2018-07-24T12:16:36.545Z,5.37
2018-07-24T12:19:04.186Z,6.00
2018-07-24T12:21:31.794Z,6.73
2018-07-24T12:23:59.398Z,7.37
2018-07-24T12:26:27.013Z,6.43
2018-07-24T12:28:55.615Z,5.80
2018-07-24T12:31:23.218Z,6.70
2018-07-24T12:33:50.825Z,6.90
2018-07-24T12:36:19.477Z,7.10
2018-07-24T12:38:47.224Z,6.43
2018-07-24T12:41:14.856Z,6.37
2018-07-24T12:43:42.479Z,6.13
2018-07-24T12:46:10.107Z,4.87
2018-07-24T12:48:37.732Z,6.17
2018-07-24T12:51:06.496Z,5.50
2018-07-24T12:53:34.201Z,4.83
2018-07-24T12:56:01.850Z,6.10
2018-07-24T12:58:29.672Z,6.07
2018-07-24T13:00:58.281Z,5.87
2018-07-24T13:03:25.932Z,5.40
2018-07-24T13:05:53.553Z,5.40
2018-07-24T13:08:21.330Z,5.57
2018-07-24T13:10:49.019Z,5.63
2018-07-24T13:13:16.654Z,4.73
2018-07-24T13:15:44.253Z,4.80
2018-07-24T13:18:11.856Z,5.20
2018-07-24T13:20:39.468Z,4.57
2018-07-24T13:23:07.093Z,5.10
2018-07-24T13:25:34.765Z,5.33
2018-07-24T13:28:02.425Z,5.80
2018-07-24T13:30:30.055Z,5.53
2018-07-24T13:32:57.696Z,4.87
2018-07-24T13:35:26.353Z,5.83
2018-07-24T13:37:53.957Z,5.50
2018-07-24T13:40:21.582Z,5.30
2018-07-24T13:42:49.253Z,4.40
2018-07-24T13:45:16.777Z,5.07
2018-07-24T13:47:44.389Z,5.27
2018-07-24T13:50:12.041Z,4.13
2018-07-24T13:52:39.653Z,4.47
2018-07-24T13:55:07.265Z,4.93
2018-07-24T13:57:34.899Z,4.57
2018-07-24T14:00:02.561Z,4.40
2018-07-24T14:02:30.186Z,4.43
2018-07-24T14:04:57.815Z,4.70
2018-07-24T14:07:25.737Z,5.60
2018-07-24T14:09:53.355Z,5.00
2018-07-24T14:12:20.969Z,4.87
2018-07-24T14:14:48.649Z,4.60
2018-07-24T14:17:16.274Z,4.60
2018-07-24T14:19:43.903Z,4.73
2018-07-24T14:22:11.562Z,4.30
2018-07-24T14:24:39.171Z,4.90
2018-07-24T14:27:06.804Z,5.20
2018-07-24T14:29:34.405Z,5.17
2018-07-24T14:32:02.018Z,5.47
2018-07-24T14:34:29.633Z,5.90
2018-07-24T14:36:58.322Z,5.60
2018-07-24T14:39:25.893Z,4.97
2018-07-24T14:41:53.406Z,5.17
2018-07-24T14:44:21.386Z,5.80
2018-07-24T14:46:48.989Z,4.47
2018-07-24T14:49:16.594Z,4.90
2018-07-24T14:51:44.196Z,4.80
2018-07-24T14:54:11.746Z,5.20
2018-07-24T14:56:39.367Z,4.90
2018-07-24T14:59:06.981Z,5.23
2018-07-24T15:01:34.601Z,4.50
2018-07-24T15:04:02.820Z,5.20
2018-07-24T15:06:31.522Z,4.07
2018-07-24T15:08:59.157Z,4.33
2018-07-24T15:11:26.781Z,4.10
2018-07-24T15:13:54.736Z,4.67
2018-07-24T15:16:22.409Z,4.40
2018-07-24T15:18:50.053Z,4.73
2018-07-24T15:21:17.658Z,4.70
2018-07-24T15:23:45.273Z,3.93
2018-07-24T15:26:12.889Z,4.37
2018-07-24T15:28:40.466Z,3.87
2018-07-24T15:31:08.181Z,4.73
2018-07-24T15:33:35.825Z,4.10
2018-07-24T15:36:03.469Z,4.83
2018-07-24T15:38:31.063Z,4.83
2018-07-24T15:40:58.694Z,4.30
2018-07-24T15:43:26.359Z,4.13
2018-07-24T15:45:53.969Z,4.10
2018-07-24T15:48:21.597Z,4.67
2018-07-24T15:50:49.397Z,4.90
2018-07-24T15:53:17.031Z,4.23
2018-07-24T15:55:44.641Z,4.80
2018-07-24T15:58:12.261Z,4.40
2018-07-24T16:00:39.889Z,4.50
2018-07-24T16:03:07.505Z,4.60
2018-07-24T16:05:35.601Z,4.70
2018-07-24T16:08:03.285Z,4.33
2018-07-24T16:10:30.963Z,4.00
2018-07-24T16:12:58.597Z,4.50
2018-07-24T16:15:26.238Z,4.43
2018-07-24T16:17:53.821Z,5.27
2018-07-24T16:20:21.465Z,4.17
2018-07-24T16:22:49.005Z,5.00
2018-07-24T16:25:17.637Z,5.20
2018-07-24T16:27:45.253Z,4.40
2018-07-24T16:30:12.933Z,4.93
2018-07-24T16:32:40.605Z,4.37
2018-07-24T16:35:08.213Z,4.70
2018-07-24T16:37:35.852Z,4.30
2018-07-24T16:40:03.734Z,4.50
2018-07-24T16:42:31.348Z,5.00
2018-07-24T16:45:00.015Z,5.00
2018-07-24T16:47:27.961Z,4.63
2018-07-24T16:49:55.569Z,4.50
2018-07-24T16:52:23.212Z,4.20
2018-07-24T16:54:51.153Z,4.90
2018-07-24T16:57:18.793Z,4.30
2018-07-24T16:59:46.405Z,5.23
2018-07-24T17:02:14.907Z,4.33
2018-07-24T17:04:42.560Z,5.10
2018-07-24T17:07:10.104Z,4.50
2018-07-24T17:09:37.728Z,5.00
2018-07-24T17:12:05.609Z,4.80
2018-07-24T17:14:33.219Z,4.70
2018-07-24T17:17:00.836Z,4.73
2018-07-24T17:19:29.476Z,4.80
2018-07-24T17:21:58.149Z,5.23
2018-07-24T17:24:25.793Z,4.93
2018-07-24T17:26:53.396Z,5.47
2018-07-24T17:29:21.084Z,5.90
2018-07-24T17:31:48.782Z,4.97
2018-07-24T17:34:16.352Z,5.40
2018-07-24T17:36:44.033Z,5.47
2018-07-24T17:39:11.624Z,6.50
2018-07-24T17:41:39.229Z,6.97
2018-07-24T17:44:07.061Z,6.20
2018-07-24T17:46:35.029Z,6.13
2018-07-24T17:49:03.657Z,5.87
2018-07-24T17:51:31.262Z,5.90
2018-07-24T17:53:58.861Z,5.97
2018-07-24T17:56:26.544Z,6.20
2018-07-24T17:58:54.166Z,6.50
2018-07-24T18:01:21.771Z,6.20
2018-07-24T18:03:49.409Z,6.67
2018-07-24T18:06:18.029Z,6.17
2018-07-24T18:08:45.630Z,7.27
2018-07-24T18:11:13.253Z,7.10
2018-07-24T18:13:40.872Z,6.43
2018-07-24T18:16:08.502Z,7.67
2018-07-24T18:18:36.097Z,7.60
2018-07-24T18:21:03.736Z,7.30
2018-07-24T18:23:31.337Z,6.93
2018-07-24T18:25:59.973Z,8.53
2018-07-24T18:28:27.596Z,7.30
2018-07-24T18:30:56.232Z,7.77
2018-07-24T18:33:23.911Z,8.40
2018-07-24T18:35:51.559Z,8.00
2018-07-24T18:38:19.093Z,8.37
2018-07-24T18:40:46.709Z,8.30
2018-07-24T18:43:14.306Z,8.17
2018-07-24T18:45:41.905Z,8.43
2018-07-24T18:48:09.524Z,8.13
2018-07-24T18:50:37.178Z,8.40
2018-07-24T18:53:04.887Z,9.53
2018-07-24T18:55:32.523Z,9.07
2018-07-24T18:58:00.131Z,8.37
2018-07-24T19:00:27.748Z,9.03
2018-07-24T19:02:55.480Z,8.50
2018-07-24T19:05:23.112Z,9.37
2018-07-24T19:07:50.780Z,8.93
2018-07-24T19:10:18.393Z,9.60
2018-07-24T19:12:46.013Z,9.23
2018-07-24T19:15:13.693Z,8.40
2018-07-24T19:17:41.369Z,8.70
2018-07-24T19:20:09.001Z,8.43
2018-07-24T19:22:36.829Z,9.20
2018-07-24T19:25:04.469Z,8.70
2018-07-24T19:27:32.835Z,8.87
2018-07-24T19:30:00.445Z,9.10
2018-07-24T19:32:28.069Z,9.20
2018-07-24T19:34:55.708Z,8.40
2018-07-24T19:37:23.332Z,8.47
2018-07-24T19:39:50.933Z,9.23
2018-07-24T19:42:18.565Z,9.70
2018-07-24T19:44:46.220Z,9.07
2018-07-24T19:47:13.852Z,8.57
2018-07-24T19:49:41.512Z,8.60
2018-07-24T19:52:10.158Z,8.40
2018-07-24T19:54:37.832Z,8.67
2018-07-24T19:57:05.517Z,8.40
2018-07-24T19:59:33.173Z,8.47
2018-07-24T20:02:00.778Z,7.73
2018-07-24T20:04:28.410Z,9.43
2018-07-24T20:06:56.025Z,8.07
2018-07-24T20:09:23.652Z,8.60
2018-07-24T20:11:51.265Z,8.20
2018-07-24T20:14:18.877Z,9.60
2018-07-24T20:16:46.509Z,8.60
2018-07-24T20:19:14.141Z,7.90
2018-07-24T20:21:41.764Z,8.90
2018-07-24T20:24:09.383Z,9.37
2018-07-24T20:26:37.032Z,9.60
2018-07-24T20:29:04.744Z,9.63
2018-07-24T20:31:33.329Z,10.00
2018-07-24T20:34:00.949Z,9.73
2018-07-24T20:36:28.582Z,9.00
2018-07-24T20:38:56.200Z,8.43
2018-07-24T20:41:23.845Z,8.57
2018-07-24T20:43:51.480Z,8.73
2018-07-24T20:46:19.080Z,8.90
2018-07-24T20:48:46.689Z,8.97
2018-07-24T20:51:14.349Z,8.83
2018-07-24T20:53:41.941Z,8.73
2018-07-24T20:56:09.573Z,8.60
2018-07-24T20:58:37.177Z,8.80
2018-07-24T21:01:04.825Z,10.27
2018-07-24T21:03:33.511Z,10.47
2018-07-24T21:06:01.027Z,9.20
2018-07-24T21:08:29.916Z,9.80
2018-07-24T21:10:57.525Z,10.80
2018-07-24T21:13:25.145Z,11.10
2018-07-24T21:15:59.540Z,10.00
2018-07-24T21:18:27.177Z,9.80
2018-07-24T21:20:54.937Z,10.70
2018-07-24T21:23:22.483Z,11.40
2018-07-24T21:25:50.100Z,10.30
2018-07-24T21:28:17.733Z,11.10
2018-07-24T21:30:45.353Z,10.90
2018-07-24T21:33:12.957Z,10.50
2018-07-24T21:35:40.590Z,11.27
2018-07-24T21:38:08.237Z,12.57
2018-07-24T21:40:35.840Z,11.10
2018-07-24T21:43:03.485Z,9.40
2018-07-24T21:45:31.113Z,9.70
2018-07-24T21:47:58.741Z,10.90
2018-07-24T21:50:26.453Z,9.63
2018-07-24T21:52:54.065Z,9.30
2018-07-24T21:55:21.698Z,9.63
2018-07-24T21:57:50.380Z,11.10
2018-07-24T22:00:18.029Z,11.10
2018-07-24T22:02:45.653Z,10.73
2018-07-24T22:05:13.290Z,11.17
2018-07-24T22:07:41.029Z,10.50
2018-07-24T22:10:15.189Z,11.50
2018-07-24T22:12:42.821Z,10.20
2018-07-24T22:15:26.023Z,10.80
2018-07-24T22:17:53.909Z,10.50
2018-07-24T22:20:21.883Z,11.33
2018-07-24T22:22:51.086Z,10.90
2018-07-24T22:25:19.825Z,11.17
2018-07-24T22:27:47.485Z,12.00
2018-07-24T22:30:15.157Z,11.03
2018-07-24T22:32:42.768Z,10.30
2018-07-24T22:35:11.644Z,10.23
2018-07-24T22:37:39.408Z,10.17
2018-07-24T22:40:08.506Z,10.23
2018-07-24T22:42:36.169Z,10.27
2018-07-24T22:45:03.986Z,9.13
2018-07-24T22:47:31.600Z,10.30
2018-07-24T22:49:59.253Z,10.97
2018-07-24T22:52:26.862Z,11.30
2018-07-24T22:54:54.465Z,10.73
2018-07-24T22:57:22.090Z,9.90
2018-07-24T22:59:49.902Z,10.77
2018-07-24T23:02:17.548Z,10.73
2018-07-24T23:04:45.165Z,12.30
2018-07-24T23:07:12.888Z,12.63
2018-07-24T23:09:40.765Z,11.03
2018-07-24T23:12:08.381Z,10.90
2018-07-24T23:14:35.988Z,11.30
2018-07-24T23:17:03.804Z,11.00
2018-07-24T23:19:31.416Z,10.97
2018-07-24T23:21:59.061Z,11.03
2018-07-24T23:24:26.664Z,11.13
2018-07-24T23:26:54.205Z,12.40
2018-07-24T23:29:21.948Z,11.10
2018-07-24T23:31:49.626Z,11.37
2018-07-24T23:34:18.257Z,11.43
2018-07-24T23:36:45.862Z,10.97
2018-07-24T23:39:13.481Z,10.90
2018-07-24T23:41:41.105Z,11.10
2018-07-24T23:44:08.737Z,11.77
2018-07-24T23:46:36.707Z,11.20
2018-07-24T23:49:05.434Z,10.60
2018-07-24T23:51:33.050Z,10.87
2018-07-24T23:54:00.667Z,11.93
2018-07-24T23:56:28.299Z,11.50
2018-07-24T23:58:55.925Z,11.27
